Aleksandrovsk-Sahalinskij, Russia
Current Conditions -  °F | °C
As of 5:00 PM on Sunday 21 Dec 2014 (Local Time) from UHSS Reporting Station
Snow Showers Snow Showers  
Wind Chill:   Ceiling: 1600
Heat Index: 18°   Visibility: 3mi
Dew Point: 14°   Wind: 9mph
Humidity: 86%   Direction: 280°W
Pressure: 29.23"   Gusts: NA
Location:  50.9°N, 142.16°E
Report Text: UHSS 210600Z 28004MPS 5000 -SHSN BKN016CB M08/M10 Q0990 RMK MTOBSC QFE741/0989
Loading
Personal Weather Stations






























Interactive Weather Map New forecast layout! Learn more

10-Day Weather Forecast

Advertisements
Track Severe Weather on mobile